createdAt,value
2018-04-13T00:00:02.842Z,9.40
2018-04-13T00:02:30.427Z,9.10
2018-04-13T00:04:58.710Z,8.57
2018-04-13T00:07:26.984Z,10.40
2018-04-13T00:09:55.348Z,11.27
2018-04-13T00:12:23.624Z,10.30
2018-04-13T00:14:51.991Z,10.53
2018-04-13T00:17:19.491Z,10.43
2018-04-13T00:19:47.031Z,10.30
2018-04-13T00:22:15.285Z,9.90
2018-04-13T00:24:42.794Z,10.60
2018-04-13T00:27:10.288Z,12.70
2018-04-13T00:29:37.841Z,12.83
2018-04-13T00:32:05.342Z,19.60
2018-04-13T00:34:32.865Z,15.13
2018-04-13T00:37:00.363Z,9.53
2018-04-13T00:39:28.632Z,9.40
2018-04-13T00:41:56.968Z,11.87
2018-04-13T00:44:24.506Z,13.50
2018-04-13T00:46:52.063Z,15.13
2018-04-13T00:49:19.579Z,15.93
2018-04-13T00:51:47.869Z,15.53
2018-04-13T00:54:15.437Z,15.03
2018-04-13T00:56:42.972Z,12.93
2018-04-13T00:59:11.266Z,12.90
2018-04-13T01:01:38.767Z,15.40
2018-04-13T01:04:06.283Z,15.80
2018-04-13T01:06:33.844Z,15.70
2018-04-13T01:09:02.120Z,14.90
2018-04-13T01:11:30.393Z,15.70
2018-04-13T01:13:58.671Z,16.30
2018-04-13T01:16:26.187Z,13.93
2018-04-13T01:18:53.677Z,11.70
2018-04-13T01:21:21.982Z,9.27
2018-04-13T01:23:49.512Z,8.90
2018-04-13T01:26:17.804Z,9.30
2018-04-13T01:28:45.340Z,11.63
2018-04-13T01:31:13.621Z,11.32
2018-04-13T01:33:41.937Z,9.98
2018-04-13T01:36:09.428Z,9.18
2018-04-13T01:38:37.032Z,11.63
2018-04-13T01:41:04.585Z,10.07
2018-04-13T01:43:32.901Z,10.45
2018-04-13T01:46:00.397Z,11.23
2018-04-13T01:48:27.928Z,11.77
2018-04-13T01:50:55.540Z,12.00
2018-04-13T01:53:23.804Z,13.43
2018-04-13T01:55:52.092Z,17.77
2018-04-13T01:58:19.646Z,17.65
2018-04-13T02:00:47.923Z,15.80
2018-04-13T02:03:16.190Z,13.25
2018-04-13T02:05:44.473Z,11.95
2018-04-13T02:08:12.840Z,11.77
2018-04-13T02:10:40.382Z,12.35
2018-04-13T02:13:07.968Z,14.30
2018-04-13T02:15:36.241Z,12.75
2018-04-13T02:18:04.512Z,12.18
2018-04-13T02:20:32.789Z,12.80
2018-04-13T02:23:00.372Z,14.73
2018-04-13T02:25:27.928Z,14.23
2018-04-13T02:27:56.213Z,16.00
2018-04-13T02:30:23.717Z,16.62
2018-04-13T02:32:51.232Z,17.00
2018-04-13T02:35:18.732Z,16.62
2018-04-13T02:37:46.259Z,17.83
2018-04-13T02:40:13.783Z,17.08
2018-04-13T02:42:42.057Z,18.98
2018-04-13T02:45:10.321Z,17.73
2018-04-13T02:47:37.835Z,18.05
2018-04-13T02:50:05.584Z,17.12
2018-04-13T02:52:33.112Z,18.02
2018-04-13T02:55:00.592Z,17.75
2018-04-13T02:57:28.141Z,19.37
2018-04-13T02:59:56.472Z,18.65
2018-04-13T03:02:23.982Z,15.70
2018-04-13T03:04:51.504Z,13.52
2018-04-13T03:07:19.025Z,9.82
2018-04-13T03:09:46.553Z,10.18
2018-04-13T03:12:14.811Z,11.18
2018-04-13T03:14:43.100Z,16.40
2018-04-13T03:17:11.489Z,18.33
2018-04-13T03:19:39.855Z,18.52
2018-04-13T03:22:08.141Z,18.95
2018-04-13T03:24:36.428Z,17.20
2018-04-13T03:27:03.938Z,17.62
2018-04-13T03:29:31.453Z,16.65
2018-04-13T03:31:58.985Z,19.37
2018-04-13T03:34:27.280Z,19.75
2018-04-13T03:36:54.832Z,21.45
2018-04-13T03:39:23.110Z,23.25
2018-04-13T03:41:51.382Z,18.10
2018-04-13T03:44:19.637Z,15.05
2018-04-13T03:46:47.204Z,10.73
2018-04-13T03:49:15.452Z,10.95
2018-04-13T03:51:42.965Z,13.15
2018-04-13T03:54:10.516Z,15.73
2018-04-13T03:56:38.765Z,16.85
2018-04-13T03:59:06.273Z,18.65
2018-04-13T04:01:33.804Z,19.15
2018-04-13T04:04:01.316Z,19.42
2018-04-13T04:06:28.846Z,17.77
2018-04-13T04:08:56.358Z,17.60
2018-04-13T04:11:23.886Z,17.25
2018-04-13T04:13:51.413Z,17.58
2018-04-13T04:16:18.903Z,16.52
2018-04-13T04:18:46.434Z,17.20
2018-04-13T04:21:40.550Z,18.08
2018-04-13T04:24:20.072Z,16.08
2018-04-13T04:26:49.431Z,13.70
2018-04-13T04:29:17.705Z,13.73
2018-04-13T04:31:45.237Z,18.30
2018-04-13T04:34:12.817Z,15.32
2018-04-13T04:36:41.100Z,14.23
2018-04-13T04:39:09.492Z,15.07
2018-04-13T04:41:37.742Z,14.80
2018-04-13T04:44:05.322Z,15.82
2018-04-13T04:46:32.828Z,15.40
2018-04-13T04:49:00.318Z,15.43
2018-04-13T04:51:27.824Z,16.87
2018-04-13T04:53:55.459Z,17.15
2018-04-13T04:56:23.737Z,17.30
2018-04-13T04:58:51.975Z,21.60
2018-04-13T05:01:19.496Z,20.10
2018-04-13T05:03:46.981Z,23.23
2018-04-13T05:06:14.489Z,22.02
2018-04-13T05:08:42.776Z,22.25
2018-04-13T05:11:10.310Z,24.05
2018-04-13T05:13:37.796Z,24.73
2018-04-13T05:16:05.314Z,26.30
2018-04-13T05:18:32.857Z,24.55
2018-04-13T05:21:00.483Z,25.05
2018-04-13T05:23:27.967Z,26.17
2018-04-13T05:25:55.632Z,26.35
2018-04-13T05:28:23.244Z,25.73
2018-04-13T05:30:50.751Z,24.85
2018-04-13T05:33:18.410Z,25.42
2018-04-13T05:35:45.956Z,23.87
2018-04-13T05:38:13.451Z,24.25
2018-04-13T05:40:41.756Z,26.10
2018-04-13T05:43:10.002Z,25.15
2018-04-13T05:45:37.517Z,24.17
2018-04-13T05:48:05.001Z,25.67
2018-04-13T05:50:32.527Z,24.87
2018-04-13T05:53:00.089Z,25.75
2018-04-13T05:55:27.621Z,24.73
2018-04-13T05:57:55.884Z,25.80
2018-04-13T06:00:24.200Z,26.40
2018-04-13T06:02:51.683Z,23.80
2018-04-13T06:05:19.168Z,25.65
2018-04-13T06:07:46.684Z,24.73
2018-04-13T06:10:14.242Z,18.95
2018-04-13T06:12:41.736Z,20.77
2018-04-13T06:15:09.269Z,18.42
2018-04-13T06:17:36.811Z,18.10
2018-04-13T06:20:04.277Z,17.27
2018-04-13T06:22:31.797Z,16.25
2018-04-13T06:25:00.057Z,18.10
2018-04-13T06:27:28.388Z,16.90
2018-04-13T06:29:56.015Z,16.40
2018-04-13T06:32:23.524Z,17.05
2018-04-13T06:34:51.207Z,16.83
2018-04-13T06:37:18.711Z,17.45
2018-04-13T06:39:46.195Z,18.05
2018-04-13T06:42:13.764Z,17.80
2018-04-13T06:44:41.318Z,21.00
2018-04-13T06:47:08.908Z,18.35
2018-04-13T06:49:37.196Z,17.40
2018-04-13T06:52:05.635Z,19.25
2018-04-13T06:54:33.121Z,19.05
2018-04-13T06:57:01.385Z,18.95
2018-04-13T06:59:28.965Z,18.75
2018-04-13T07:01:57.256Z,18.48
2018-04-13T07:04:24.814Z,17.95
2018-04-13T07:06:53.162Z,21.70
2018-04-13T07:09:20.717Z,20.60
2018-04-13T07:11:48.327Z,22.20
2018-04-13T07:14:15.915Z,20.50
2018-04-13T07:16:43.516Z,18.20
2018-04-13T07:19:11.901Z,19.12
2018-04-13T07:21:39.362Z,18.73
2018-04-13T07:24:08.108Z,18.77
2018-04-13T07:26:36.085Z,20.42
2018-04-13T07:29:03.538Z,19.90
2018-04-13T07:31:31.146Z,19.25
2018-04-13T07:33:59.476Z,20.05
2018-04-13T07:36:27.271Z,20.88
2018-04-13T07:38:55.565Z,19.45
2018-04-13T07:41:23.084Z,21.48
2018-04-13T07:43:50.665Z,22.30
2018-04-13T07:46:18.922Z,20.73
2018-04-13T07:48:46.662Z,19.48
2018-04-13T07:51:14.151Z,21.30
2018-04-13T07:53:41.699Z,21.55
2018-04-13T07:56:09.291Z,22.30
2018-04-13T07:58:37.599Z,23.17
2018-04-13T08:01:05.464Z,23.33
2018-04-13T08:03:32.718Z,23.05
2018-04-13T08:06:00.209Z,23.48
2018-04-13T08:08:27.805Z,23.70
2018-04-13T08:10:55.365Z,23.27
2018-04-13T08:13:22.923Z,23.45
2018-04-13T08:15:50.428Z,24.00
2018-04-13T08:18:18.043Z,23.97
2018-04-13T08:20:46.324Z,23.63
2018-04-13T08:23:13.833Z,24.63
2018-04-13T08:25:41.331Z,25.60
2018-04-13T08:28:09.710Z,24.95
2018-04-13T08:30:37.237Z,25.10
2018-04-13T08:33:04.739Z,25.70
2018-04-13T08:35:32.401Z,26.55
2018-04-13T08:38:00.573Z,25.63
2018-04-13T08:40:28.167Z,23.12
2018-04-13T08:42:55.668Z,26.45
2018-04-13T08:45:24.062Z,26.90
2018-04-13T08:47:52.341Z,28.10
2018-04-13T08:50:19.857Z,26.25
2018-04-13T08:52:47.717Z,26.70
2018-04-13T08:55:15.213Z,29.20
2018-04-13T08:57:43.518Z,28.10
2018-04-13T09:00:11.004Z,26.50
2018-04-13T09:02:38.559Z,28.13
2018-04-13T09:05:06.380Z,28.60
2018-04-13T09:07:33.941Z,29.10
2018-04-13T09:10:02.249Z,29.93
2018-04-13T09:12:29.783Z,29.63
2018-04-13T09:14:57.288Z,31.53
2018-04-13T09:17:24.837Z,31.80
2018-04-13T09:19:52.361Z,32.77
2018-04-13T09:22:20.023Z,34.80
2018-04-13T09:24:47.528Z,33.93
2018-04-13T09:27:15.044Z,35.13
2018-04-13T09:29:43.305Z,38.47
2018-04-13T09:32:11.558Z,37.67
2018-04-13T09:34:39.117Z,37.60
2018-04-13T09:37:06.713Z,38.63
2018-04-13T09:39:34.231Z,43.37
2018-04-13T09:42:02.056Z,44.27
2018-04-13T09:44:29.581Z,44.33
2018-04-13T09:46:57.867Z,43.73
2018-04-13T09:49:25.382Z,48.57
2018-04-13T09:51:52.918Z,51.10
2018-04-13T09:54:20.444Z,53.27
2018-04-13T09:56:48.737Z,51.60
2018-04-13T09:59:16.252Z,52.30
2018-04-13T10:01:43.880Z,53.53
2018-04-13T10:04:13.088Z,54.00
2018-04-13T10:06:40.593Z,52.07
2018-04-13T10:09:08.109Z,53.57
2018-04-13T10:11:35.649Z,48.43
2018-04-13T10:14:03.195Z,50.67
2018-04-13T10:16:30.730Z,46.60
2018-04-13T10:18:58.427Z,47.87
2018-04-13T10:21:26.060Z,48.90
2018-04-13T10:23:54.348Z,47.83
2018-04-13T10:26:21.871Z,48.57
2018-04-13T10:28:49.441Z,49.73
2018-04-13T10:31:17.797Z,44.63
2018-04-13T10:33:45.344Z,47.40
2018-04-13T10:36:12.875Z,50.27
2018-04-13T10:38:40.369Z,46.27
2018-04-13T10:41:07.941Z,43.90
2018-04-13T10:43:36.275Z,41.00
2018-04-13T10:46:03.814Z,41.87
2018-04-13T10:48:31.332Z,41.87
2018-04-13T10:50:58.825Z,37.30
2018-04-13T10:53:26.366Z,36.80
2018-04-13T10:55:54.650Z,34.60
2018-04-13T10:58:22.296Z,32.20
2018-04-13T11:00:50.614Z,26.77
2018-04-13T11:03:18.135Z,24.43
2018-04-13T11:05:46.457Z,18.80
2018-04-13T11:08:13.988Z,13.87
2018-04-13T11:10:41.570Z,15.10
2018-04-13T11:13:09.196Z,11.90
2018-04-13T11:15:36.728Z,11.40
2018-04-13T11:18:04.242Z,12.50
2018-04-13T11:20:31.940Z,12.30
2018-04-13T11:22:59.444Z,12.47
2018-04-13T11:25:26.977Z,11.13
2018-04-13T11:27:55.266Z,10.87
2018-04-13T11:30:23.568Z,8.90
2018-04-13T11:32:51.127Z,8.33
2018-04-13T11:35:18.626Z,8.83
2018-04-13T11:37:46.146Z,8.40
2018-04-13T11:40:23.656Z,8.67
2018-04-13T11:42:51.170Z,8.87
2018-04-13T11:45:20.491Z,9.03
2018-04-13T11:47:48.016Z,9.47
2018-04-13T11:50:15.565Z,8.77
2018-04-13T11:52:43.123Z,10.17
2018-04-13T11:55:10.795Z,8.90
2018-04-13T11:57:38.977Z,8.47
2018-04-13T12:00:06.512Z,8.93
2018-04-13T12:02:34.034Z,8.50
2018-04-13T12:05:01.557Z,8.73
2018-04-13T12:07:29.834Z,9.23
2018-04-13T12:09:58.153Z,10.27
2018-04-13T12:12:25.661Z,9.70
2018-04-13T12:14:53.943Z,8.90
2018-04-13T12:17:21.925Z,9.40
2018-04-13T12:19:49.433Z,8.23
2018-04-13T12:22:16.982Z,10.77
2018-04-13T12:24:44.492Z,10.43
2018-04-13T12:27:12.752Z,12.33
2018-04-13T12:29:40.338Z,12.50
2018-04-13T12:32:08.662Z,11.80
2018-04-13T12:34:36.169Z,12.87
2018-04-13T12:37:04.564Z,13.50
2018-04-13T12:39:32.121Z,10.67
2018-04-13T12:41:59.630Z,11.67
2018-04-13T12:44:27.287Z,11.67
2018-04-13T12:46:54.895Z,11.63
2018-04-13T12:49:23.149Z,11.97
2018-04-13T12:51:51.429Z,11.47
2018-04-13T12:54:19.688Z,11.07
2018-04-13T12:56:47.181Z,11.70
2018-04-13T12:59:14.723Z,11.00
2018-04-13T13:01:42.208Z,11.33
2018-04-13T13:04:09.746Z,10.70
2018-04-13T13:06:38.058Z,10.17
2018-04-13T13:09:06.400Z,12.00
2018-04-13T13:11:34.685Z,11.20
2018-04-13T13:14:02.205Z,11.87
2018-04-13T13:16:29.691Z,9.87
2018-04-13T13:18:58.010Z,8.87
2018-04-13T13:21:25.554Z,7.40
2018-04-13T13:23:53.955Z,7.40
2018-04-13T13:26:21.563Z,6.90
2018-04-13T13:28:49.820Z,7.53
2018-04-13T13:31:18.227Z,7.73
2018-04-13T13:33:46.599Z,7.07
2018-04-13T13:36:14.879Z,5.10
2018-04-13T13:38:43.161Z,5.23
2018-04-13T13:41:11.465Z,5.97
2018-04-13T13:43:38.986Z,5.50
2018-04-13T13:46:07.340Z,5.50
2018-04-13T13:48:34.858Z,5.20
2018-04-13T13:51:02.399Z,5.60
2018-04-13T13:53:30.753Z,5.23
2018-04-13T13:55:59.000Z,7.23
2018-04-13T13:58:26.521Z,6.10
2018-04-13T14:00:54.653Z,5.50
2018-04-13T14:03:22.327Z,5.53
2018-04-13T14:05:50.084Z,5.40
2018-04-13T14:08:18.101Z,5.73
2018-04-13T14:10:45.613Z,5.80
2018-04-13T14:13:13.888Z,6.53
2018-04-13T14:15:41.490Z,6.63
2018-04-13T14:18:09.011Z,6.07
2018-04-13T14:20:37.285Z,6.87
2018-04-13T14:23:05.538Z,6.17
2018-04-13T14:25:33.087Z,6.77
2018-04-13T14:28:11.872Z,6.17
2018-04-13T14:30:39.709Z,5.60
2018-04-13T14:33:07.298Z,4.93
2018-04-13T14:35:34.781Z,6.60
2018-04-13T14:38:02.330Z,7.03
2018-04-13T14:40:29.825Z,6.87
2018-04-13T14:42:57.396Z,6.23
2018-04-13T14:45:24.910Z,6.93
2018-04-13T14:47:52.384Z,6.47
2018-04-13T14:50:19.896Z,6.30
2018-04-13T14:52:47.395Z,5.60
2018-04-13T14:55:15.053Z,6.67
2018-04-13T14:57:42.701Z,6.23
2018-04-13T15:00:10.536Z,7.00
2018-04-13T15:02:38.793Z,8.00
2018-04-13T15:05:06.295Z,6.60
2018-04-13T15:07:33.780Z,7.20
2018-04-13T15:10:01.291Z,7.77
2018-04-13T15:12:29.680Z,7.97
2018-04-13T15:14:57.915Z,7.27
2018-04-13T15:17:25.430Z,7.30
2018-04-13T15:19:52.953Z,8.43
2018-04-13T15:22:20.520Z,8.10
2018-04-13T15:24:48.834Z,7.33
2018-04-13T15:27:16.316Z,6.23
2018-04-13T15:29:43.843Z,7.07
2018-04-13T15:32:11.336Z,6.60
2018-04-13T15:34:38.839Z,7.60
2018-04-13T15:37:06.329Z,6.07
2018-04-13T15:39:33.822Z,5.77
2018-04-13T15:42:01.347Z,5.80
2018-04-13T15:44:28.906Z,6.60
2018-04-13T15:46:56.405Z,5.97
2018-04-13T15:49:24.725Z,5.67
2018-04-13T15:51:52.549Z,5.67
2018-04-13T15:54:20.821Z,6.60
2018-04-13T15:56:48.383Z,6.40
2018-04-13T15:59:16.650Z,6.40
2018-04-13T16:01:44.197Z,5.27
2018-04-13T16:04:11.701Z,5.77
2018-04-13T16:06:40.056Z,6.03
2018-04-13T16:09:08.375Z,7.13
2018-04-13T16:11:35.865Z,6.90
2018-04-13T16:14:03.361Z,4.63
2018-04-13T16:16:31.639Z,8.77
2018-04-13T16:18:59.889Z,7.63
2018-04-13T16:21:27.373Z,7.40
2018-04-13T16:23:54.887Z,6.43
2018-04-13T16:26:22.680Z,7.30
2018-04-13T16:28:50.254Z,7.33
2018-04-13T16:31:18.532Z,7.50
2018-04-13T16:33:46.792Z,7.50
2018-04-13T16:36:15.112Z,6.70
2018-04-13T16:38:42.621Z,6.30
2018-04-13T16:41:10.090Z,6.57
2018-04-13T16:43:38.371Z,7.60
2018-04-13T16:46:06.660Z,7.43
2018-04-13T16:48:34.231Z,9.37
2018-04-13T16:51:01.792Z,7.80
2018-04-13T16:53:29.360Z,10.33
2018-04-13T16:55:56.928Z,9.67
2018-04-13T16:58:24.372Z,9.27
2018-04-13T17:00:51.866Z,5.57
2018-04-13T17:03:19.360Z,6.50
2018-04-13T17:05:47.742Z,8.20
2018-04-13T17:08:16.022Z,7.90
2018-04-13T17:10:44.327Z,8.90
2018-04-13T17:13:11.944Z,13.23
2018-04-13T17:15:40.229Z,11.30
2018-04-13T17:18:08.579Z,11.47
2018-04-13T17:20:36.081Z,9.87
2018-04-13T17:23:03.600Z,8.87
2018-04-13T17:25:31.112Z,7.33
2018-04-13T17:28:00.059Z,7.20
2018-04-13T17:30:28.346Z,9.07
2018-04-13T17:32:56.629Z,7.80
2018-04-13T17:35:24.916Z,9.00
2018-04-13T17:37:52.416Z,11.70
2018-04-13T17:40:20.305Z,10.10
2018-04-13T17:42:48.724Z,9.23
2018-04-13T17:45:16.973Z,11.93
2018-04-13T17:47:45.357Z,10.97
2018-04-13T17:50:13.747Z,11.70
2018-04-13T17:52:41.232Z,12.77
2018-04-13T17:55:08.783Z,11.20
2018-04-13T17:57:37.848Z,27.30
2018-04-13T18:00:06.138Z,16.63
2018-04-13T18:02:33.621Z,11.60
2018-04-13T18:05:01.413Z,10.50
2018-04-13T18:07:29.044Z,10.77
2018-04-13T18:09:56.552Z,12.03
2018-04-13T18:12:24.881Z,12.37
2018-04-13T18:14:52.377Z,24.43
2018-04-13T18:17:19.872Z,16.93
2018-04-13T18:19:48.529Z,20.40
2018-04-13T18:22:16.057Z,22.30
2018-04-13T18:24:43.545Z,15.80
2018-04-13T18:27:11.089Z,13.43
2018-04-13T18:29:38.616Z,12.43
2018-04-13T18:32:06.156Z,11.97
2018-04-13T18:34:33.702Z,12.67
2018-04-13T18:37:01.995Z,13.40
2018-04-13T18:39:29.538Z,12.57
2018-04-13T18:41:57.806Z,12.20
2018-04-13T18:44:26.480Z,13.30
2018-04-13T18:46:55.836Z,14.33
2018-04-13T18:49:23.347Z,12.40
2018-04-13T18:51:51.678Z,30.07
2018-04-13T18:54:19.165Z,21.67
2018-04-13T18:56:46.745Z,15.27
2018-04-13T18:59:15.060Z,13.97
2018-04-13T19:01:42.640Z,14.03
2018-04-13T19:04:10.167Z,14.23
2018-04-13T19:06:37.688Z,14.23
2018-04-13T19:09:05.208Z,13.30
2018-04-13T19:11:32.705Z,12.93
2018-04-13T19:14:00.287Z,13.37
2018-04-13T19:16:28.573Z,13.00
2018-04-13T19:18:56.099Z,13.47
2018-04-13T19:21:23.607Z,13.77
2018-04-13T19:23:51.308Z,13.00
2018-04-13T19:26:19.083Z,14.70
2018-04-13T19:28:46.633Z,13.70
2018-04-13T19:31:14.148Z,12.50
2018-04-13T19:33:41.832Z,12.40
2018-04-13T19:36:10.164Z,12.13
2018-04-13T19:38:38.519Z,11.93
2018-04-13T19:41:06.446Z,11.10
2018-04-13T19:43:35.111Z,10.97
2018-04-13T19:46:02.649Z,13.63
2018-04-13T19:48:30.918Z,16.47
2018-04-13T19:50:59.245Z,14.00
2018-04-13T19:53:26.781Z,13.93
2018-04-13T19:55:54.343Z,13.23
2018-04-13T19:58:21.876Z,10.23
2018-04-13T20:00:50.156Z,10.23
2018-04-13T20:03:18.731Z,11.00
2018-04-13T20:05:47.051Z,10.80
2018-04-13T20:08:15.405Z,9.70
2018-04-13T20:10:43.690Z,9.23
2018-04-13T20:13:11.206Z,9.77
2018-04-13T20:15:38.779Z,8.77
2018-04-13T20:18:06.378Z,8.90
2018-04-13T20:20:33.914Z,11.07
2018-04-13T20:23:02.420Z,9.73
2018-04-13T20:25:29.942Z,10.40
2018-04-13T20:27:57.444Z,8.20
2018-04-13T20:30:25.124Z,8.93
2018-04-13T20:32:52.710Z,8.73
2018-04-13T20:35:20.205Z,7.63
2018-04-13T20:37:47.697Z,7.67
2018-04-13T20:40:15.205Z,7.80
2018-04-13T20:42:43.575Z,7.30
2018-04-13T20:45:11.986Z,6.73
2018-04-13T20:47:39.561Z,7.50
2018-04-13T20:50:07.137Z,7.63
2018-04-13T20:52:34.645Z,7.20
2018-04-13T20:55:02.201Z,7.60
2018-04-13T20:57:29.700Z,6.80
2018-04-13T20:59:57.200Z,7.23
2018-04-13T21:02:25.484Z,6.20
2018-04-13T21:04:54.077Z,6.83
2018-04-13T21:07:22.449Z,6.53
2018-04-13T21:09:50.032Z,6.20
2018-04-13T21:12:17.608Z,6.63
2018-04-13T21:14:45.185Z,6.20
2018-04-13T21:17:12.784Z,6.27
2018-04-13T21:19:41.044Z,5.60
2018-04-13T21:22:08.588Z,5.10
2018-04-13T21:24:36.136Z,6.10
2018-04-13T21:27:03.732Z,6.00
2018-04-13T21:29:32.020Z,6.60
2018-04-13T21:32:00.281Z,7.40
2018-04-13T21:34:28.570Z,6.40
2018-04-13T21:36:56.877Z,5.60
2018-04-13T21:39:24.377Z,6.80
2018-04-13T21:41:51.970Z,7.25
2018-04-13T21:44:19.597Z,7.93
2018-04-13T21:46:47.884Z,6.65
2018-04-13T21:49:16.159Z,7.45
2018-04-13T21:51:43.725Z,6.53
2018-04-13T21:54:12.001Z,7.20
2018-04-13T21:56:40.268Z,7.80
2018-04-13T21:59:07.756Z,6.67
2018-04-13T22:01:35.267Z,6.85
2018-04-13T22:04:02.813Z,7.03
2018-04-13T22:06:30.313Z,7.47
2018-04-13T22:08:58.705Z,7.30
2018-04-13T22:11:26.300Z,7.37
2018-04-13T22:14:05.735Z,7.83
2018-04-13T22:16:33.242Z,8.20
2018-04-13T22:19:01.576Z,10.30
2018-04-13T22:21:29.190Z,9.57
2018-04-13T22:23:57.509Z,9.97
2018-04-13T22:26:25.013Z,9.80
2018-04-13T22:28:53.283Z,11.00
2018-04-13T22:31:20.856Z,10.10
2018-04-13T22:33:49.155Z,10.60
2018-04-13T22:36:16.731Z,10.32
2018-04-13T22:38:44.282Z,10.38
2018-04-13T22:41:11.825Z,10.60
2018-04-13T22:43:40.093Z,9.90
2018-04-13T22:46:08.377Z,12.37
2018-04-13T22:48:35.904Z,11.80
2018-04-13T22:51:03.512Z,11.15
2018-04-13T22:53:31.158Z,12.30
2018-04-13T22:55:58.666Z,12.25
2018-04-13T22:58:26.175Z,10.32
2018-04-13T23:00:54.560Z,12.13
2018-04-13T23:03:22.861Z,11.70
2018-04-13T23:05:50.417Z,12.50
2018-04-13T23:08:18.532Z,11.30
2018-04-13T23:10:46.234Z,11.90
2018-04-13T23:13:13.793Z,11.95
2018-04-13T23:15:41.351Z,12.05
2018-04-13T23:18:08.918Z,11.40
2018-04-13T23:20:36.450Z,11.82
2018-04-13T23:23:04.743Z,12.10
2018-04-13T23:25:32.293Z,12.10
2018-04-13T23:28:00.594Z,13.98
2018-04-13T23:30:28.346Z,12.35
2018-04-13T23:32:55.907Z,12.75
2018-04-13T23:35:23.454Z,11.82
2018-04-13T23:37:51.764Z,12.57
2018-04-13T23:40:19.264Z,12.02
2018-04-13T23:42:46.784Z,12.13
2018-04-13T23:45:14.306Z,11.77
2018-04-13T23:47:42.573Z,10.57
2018-04-13T23:50:10.854Z,10.82
2018-04-13T23:52:39.117Z,11.15
2018-04-13T23:55:07.529Z,11.00
2018-04-13T23:57:35.076Z,10.85
